sensor_id;sensor_type;location;lat;lon;timestamp;pressure;altitude;pressure_sealevel;temperature;humidity
36630;BME280;36256;42.154;23.002;2023-04-19T00:00:52;96751.69;;;11.62;100.00
36630;BME280;36256;42.154;23.002;2023-04-19T00:03:19;96753.88;;;11.58;100.00
36630;BME280;36256;42.154;23.002;2023-04-19T00:05:46;96748.28;;;11.58;100.00
36630;BME280;36256;42.154;23.002;2023-04-19T00:08:13;96748.28;;;11.58;100.00
36630;BME280;36256;42.154;23.002;2023-04-19T00:10:39;96743.44;;;11.58;100.00
36630;BME280;36256;42.154;23.002;2023-04-19T00:13:06;96745.53;;;11.40;100.00
36630;BME280;36256;42.154;23.002;2023-04-19T00:15:32;96745.22;;;11.38;100.00
36630;BME280;36256;42.154;23.002;2023-04-19T00:18:00;96742.72;;;11.40;100.00
36630;BME280;36256;42.154;23.002;2023-04-19T00:20:26;96741.16;;;11.39;100.00
36630;BME280;36256;42.154;23.002;2023-04-19T00:22:53;96741.75;;;11.43;100.00
36630;BME280;36256;42.154;23.002;2023-04-19T00:25:19;96730.88;;;11.36;99.66
36630;BME280;36256;42.154;23.002;2023-04-19T00:27:46;96730.41;;;11.28;100.00
36630;BME280;36256;42.154;23.002;2023-04-19T00:30:12;96728.75;;;11.13;100.00
36630;BME280;36256;42.154;23.002;2023-04-19T00:32:39;96730.00;;;11.12;100.00
36630;BME280;36256;42.154;23.002;2023-04-19T00:35:06;96725.03;;;11.07;100.00
36630;BME280;36256;42.154;23.002;2023-04-19T00:37:32;96727.50;;;11.04;100.00
36630;BME280;36256;42.154;23.002;2023-04-19T00:39:59;96733.75;;;10.99;100.00
36630;BME280;36256;42.154;23.002;2023-04-19T00:42:25;96729.09;;;10.96;100.00
36630;BME280;36256;42.154;23.002;2023-04-19T00:44:52;96739.22;;;11.03;100.00
36630;BME280;36256;42.154;23.002;2023-04-19T00:47:18;96736.25;;;11.07;100.00
36630;BME280;36256;42.154;23.002;2023-04-19T00:49:45;96727.84;;;10.97;100.00
36630;BME280;36256;42.154;23.002;2023-04-19T00:52:11;96727.34;;;11.08;100.00
36630;BME280;36256;42.154;23.002;2023-04-19T00:54:38;96731.56;;;11.13;100.00
36630;BME280;36256;42.154;23.002;2023-04-19T00:57:06;96729.06;;;11.05;100.00
36630;BME280;36256;42.154;23.002;2023-04-19T00:59:33;96724.69;;;11.04;100.00
36630;BME280;36256;42.154;23.002;2023-04-19T01:02:00;96725.19;;;11.03;100.00
36630;BME280;36256;42.154;23.002;2023-04-19T01:04:27;96721.88;;;11.04;100.00
36630;BME280;36256;42.154;23.002;2023-04-19T01:06:53;96723.47;;;11.05;100.00
36630;BME280;36256;42.154;23.002;2023-04-19T01:09:20;96718.34;;;10.95;100.00
36630;BME280;36256;42.154;23.002;2023-04-19T01:11:46;96714.59;;;10.98;100.00
36630;BME280;36256;42.154;23.002;2023-04-19T01:14:13;96706.00;;;11.01;100.00
36630;BME280;36256;42.154;23.002;2023-04-19T01:16:40;96716.59;;;11.07;100.00
36630;BME280;36256;42.154;23.002;2023-04-19T01:19:06;96713.81;;;11.07;100.00
36630;BME280;36256;42.154;23.002;2023-04-19T01:21:35;96707.72;;;11.08;100.00
36630;BME280;36256;42.154;23.002;2023-04-19T01:24:03;96711.28;;;11.09;100.00
36630;BME280;36256;42.154;23.002;2023-04-19T01:26:30;96711.63;;;11.01;100.00
36630;BME280;36256;42.154;23.002;2023-04-19T01:28:56;96708.19;;;11.07;100.00
36630;BME280;36256;42.154;23.002;2023-04-19T01:31:22;96708.19;;;11.07;100.00
36630;BME280;36256;42.154;23.002;2023-04-19T01:33:49;96707.41;;;10.88;100.00
36630;BME280;36256;42.154;23.002;2023-04-19T01:36:15;96715.53;;;10.86;100.00
36630;BME280;36256;42.154;23.002;2023-04-19T01:38:42;96706.50;;;10.91;100.00
36630;BME280;36256;42.154;23.002;2023-04-19T01:41:08;96705.09;;;10.86;100.00
36630;BME280;36256;42.154;23.002;2023-04-19T01:43:35;96711.31;;;10.90;100.00
36630;BME280;36256;42.154;23.002;2023-04-19T01:46:01;96706.50;;;10.91;100.00
36630;BME280;36256;42.154;23.002;2023-04-19T01:48:28;96710.69;;;10.86;100.00
36630;BME280;36256;42.154;23.002;2023-04-19T01:50:55;96706.81;;;10.84;100.00
36630;BME280;36256;42.154;23.002;2023-04-19T01:53:21;96703.56;;;10.85;100.00
36630;BME280;36256;42.154;23.002;2023-04-19T01:55:48;96709.78;;;10.89;100.00
36630;BME280;36256;42.154;23.002;2023-04-19T01:58:14;96712.59;;;10.89;100.00
36630;BME280;36256;42.154;23.002;2023-04-19T02:00:41;96713.03;;;10.88;100.00
36630;BME280;36256;42.154;23.002;2023-04-19T02:03:07;96710.88;;;10.83;100.00
36630;BME280;36256;42.154;23.002;2023-04-19T02:05:34;96720.38;;;10.85;100.00
36630;BME280;36256;42.154;23.002;2023-04-19T02:08:01;96709.59;;;10.93;100.00
36630;BME280;36256;42.154;23.002;2023-04-19T02:10:27;96721.31;;;10.91;100.00
36630;BME280;36256;42.154;23.002;2023-04-19T02:12:54;96716.00;;;10.93;100.00
36630;BME280;36256;42.154;23.002;2023-04-19T02:15:20;96726.28;;;10.96;100.00
36630;BME280;36256;42.154;23.002;2023-04-19T02:17:47;96716.63;;;10.97;100.00
36630;BME280;36256;42.154;23.002;2023-04-19T02:20:13;96721.56;;;11.02;100.00
36630;BME280;36256;42.154;23.002;2023-04-19T02:22:39;96724.69;;;11.04;100.00
36630;BME280;36256;42.154;23.002;2023-04-19T02:25:06;96720.34;;;11.03;100.00
36630;BME280;36256;42.154;23.002;2023-04-19T02:27:33;96713.81;;;11.07;100.00
36630;BME280;36256;42.154;23.002;2023-04-19T02:29:59;96717.66;;;11.09;100.00
36630;BME280;36256;42.154;23.002;2023-04-19T02:32:26;96722.53;;;11.09;100.00
36630;BME280;36256;42.154;23.002;2023-04-19T02:34:52;96723.28;;;11.09;100.00
36630;BME280;36256;42.154;23.002;2023-04-19T02:37:19;96716.13;;;11.08;100.00
36630;BME280;36256;42.154;23.002;2023-04-19T02:39:45;96725.03;;;11.07;100.00
36630;BME280;36256;42.154;23.002;2023-04-19T02:42:12;96713.16;;;11.02;100.00
36630;BME280;36256;42.154;23.002;2023-04-19T02:44:38;96720.03;;;11.01;100.00
36630;BME280;36256;42.154;23.002;2023-04-19T02:47:05;96712.53;;;10.98;100.00
36630;BME280;36256;42.154;23.002;2023-04-19T02:49:31;96720.03;;;10.92;100.00
36630;BME280;36256;42.154;23.002;2023-04-19T02:52:03;96711.31;;;10.90;100.00
36630;BME280;36256;42.154;23.002;2023-04-19T02:54:29;96713.19;;;10.84;100.00
36630;BME280;36256;42.154;23.002;2023-04-19T02:56:56;96714.00;;;10.85;100.00
36630;BME280;36256;42.154;23.002;2023-04-19T02:59:22;96707.59;;;10.84;100.00
36630;BME280;36256;42.154;23.002;2023-04-19T03:01:49;96710.09;;;10.82;100.00
36630;BME280;36256;42.154;23.002;2023-04-19T03:04:16;96715.38;;;10.89;100.00
36630;BME280;36256;42.154;23.002;2023-04-19T03:06:43;96710.69;;;10.86;100.00
36630;BME280;36256;42.154;23.002;2023-04-19T03:09:09;96709.00;;;10.89;100.00
36630;BME280;36256;42.154;23.002;2023-04-19T03:11:36;96711.50;;;10.87;100.00
36630;BME280;36256;42.154;23.002;2023-04-19T03:14:03;96714.13;;;10.90;100.00
36630;BME280;36256;42.154;23.002;2023-04-19T03:16:30;96703.69;;;10.91;100.00
36630;BME280;36256;42.154;23.002;2023-04-19T03:18:56;96702.09;;;10.90;100.00
36630;BME280;36256;42.154;23.002;2023-04-19T03:21:23;96703.19;;;10.92;100.00
36630;BME280;36256;42.154;23.002;2023-04-19T03:23:53;96711.16;;;10.94;100.00
36630;BME280;36256;42.154;23.002;2023-04-19T03:26:19;96705.38;;;10.97;100.00
36630;BME280;36256;42.154;23.002;2023-04-19T03:28:46;96700.69;;;10.94;100.00
36630;BME280;36256;42.154;23.002;2023-04-19T03:31:13;96705.38;;;10.97;100.00
36630;BME280;36256;42.154;23.002;2023-04-19T03:33:40;96706.94;;;10.98;100.00
36630;BME280;36256;42.154;23.002;2023-04-19T03:36:06;96716.44;;;11.01;100.00
36630;BME280;36256;42.154;23.002;2023-04-19T03:38:33;96704.44;;;11.00;100.00
36630;BME280;36256;42.154;23.002;2023-04-19T03:40:59;96711.63;;;11.01;100.00
36630;BME280;36256;42.154;23.002;2023-04-19T03:43:26;96708.19;;;10.97;100.00
36630;BME280;36256;42.154;23.002;2023-04-19T03:45:52;96701.50;;;10.95;100.00
36630;BME280;36256;42.154;23.002;2023-04-19T03:48:19;96709.75;;;10.98;100.00
36630;BME280;36256;42.154;23.002;2023-04-19T03:50:45;96712.53;;;10.98;100.00
36630;BME280;36256;42.154;23.002;2023-04-19T03:53:12;96710.03;;;11.00;100.00
36630;BME280;36256;42.154;23.002;2023-04-19T03:55:38;96717.22;;;11.01;100.00
36630;BME280;36256;42.154;23.002;2023-04-19T03:58:05;96706.94;;;10.98;100.00
36630;BME280;36256;42.154;23.002;2023-04-19T04:00:31;96705.09;;;10.95;100.00
36630;BME280;36256;42.154;23.002;2023-04-19T04:02:57;96710.53;;;10.90;100.00
36630;BME280;36256;42.154;23.002;2023-04-19T04:05:26;96708.03;;;10.92;100.00
36630;BME280;36256;42.154;23.002;2023-04-19T04:07:52;96713.66;;;10.92;100.00
36630;BME280;36256;42.154;23.002;2023-04-19T04:10:19;96709.44;;;10.96;100.00
36630;BME280;36256;42.154;23.002;2023-04-19T04:12:45;96707.53;;;11.02;100.00
36630;BME280;36256;42.154;23.002;2023-04-19T04:15:12;96713.00;;;11.06;100.00
36630;BME280;36256;42.154;23.002;2023-04-19T04:17:38;96705.69;;;11.09;100.00
36630;BME280;36256;42.154;23.002;2023-04-19T04:20:05;96710.50;;;11.17;100.00
36630;BME280;36256;42.154;23.002;2023-04-19T04:22:32;96710.00;;;11.19;100.00
36630;BME280;36256;42.154;23.002;2023-04-19T04:24:58;96710.00;;;11.19;100.00
36630;BME280;36256;42.154;23.002;2023-04-19T04:27:26;96707.69;;;11.17;100.00
36630;BME280;36256;42.154;23.002;2023-04-19T04:29:52;96710.44;;;11.26;100.00
36630;BME280;36256;42.154;23.002;2023-04-19T04:32:19;96710.91;;;11.34;100.00
36630;BME280;36256;42.154;23.002;2023-04-19T04:34:49;96710.72;;;11.37;100.00
36630;BME280;36256;42.154;23.002;2023-04-19T04:37:15;96710.84;;;11.43;100.00
36630;BME280;36256;42.154;23.002;2023-04-19T04:39:43;96713.34;;;11.50;100.00
36630;BME280;36256;42.154;23.002;2023-04-19T04:42:09;96714.91;;;11.51;100.00
36630;BME280;36256;42.154;23.002;2023-04-19T04:44:36;96720.66;;;11.56;100.00
36630;BME280;36256;42.154;23.002;2023-04-19T04:47:04;96714.41;;;11.61;100.00
36630;BME280;36256;42.154;23.002;2023-04-19T04:49:30;96710.13;;;11.66;100.00
36630;BME280;36256;42.154;23.002;2023-04-19T04:51:57;96717.19;;;11.70;100.00
36630;BME280;36256;42.154;23.002;2023-04-19T04:54:23;96722.94;;;11.76;100.00
36630;BME280;36256;42.154;23.002;2023-04-19T04:56:50;96720.56;;;11.83;100.00
36630;BME280;36256;42.154;23.002;2023-04-19T04:59:16;96717.84;;;11.89;100.00
36630;BME280;36256;42.154;23.002;2023-04-19T05:01:43;96723.75;;;12.00;100.00
36630;BME280;36256;42.154;23.002;2023-04-19T05:04:10;96724.28;;;12.13;100.00
36630;BME280;36256;42.154;23.002;2023-04-19T05:06:36;96716.56;;;12.23;100.00
36630;BME280;36256;42.154;23.002;2023-04-19T05:09:06;96721.47;;;12.13;100.00
36630;BME280;36256;42.154;23.002;2023-04-19T05:11:33;96711.41;;;12.21;100.00
36630;BME280;36256;42.154;23.002;2023-04-19T05:13:59;96712.00;;;12.25;100.00
36630;BME280;36256;42.154;23.002;2023-04-19T05:16:26;96716.63;;;12.37;100.00
36630;BME280;36256;42.154;23.002;2023-04-19T05:18:52;96720.25;;;12.52;100.00
36630;BME280;36256;42.154;23.002;2023-04-19T05:21:19;96711.25;;;12.63;99.95
36630;BME280;36256;42.154;23.002;2023-04-19T05:23:46;96712.25;;;12.75;97.21
36630;BME280;36256;42.154;23.002;2023-04-19T05:26:13;96716.06;;;12.86;97.09
36630;BME280;36256;42.154;23.002;2023-04-19T05:28:40;96707.34;;;12.99;96.04
36630;BME280;36256;42.154;23.002;2023-04-19T05:31:07;96708.34;;;13.10;93.56
36630;BME280;36256;42.154;23.002;2023-04-19T05:33:34;96713.50;;;13.12;94.95
36630;BME280;36256;42.154;23.002;2023-04-19T05:36:00;96701.16;;;13.09;95.33
36630;BME280;36256;42.154;23.002;2023-04-19T05:38:27;96710.38;;;13.24;96.45
36630;BME280;36256;42.154;23.002;2023-04-19T05:40:53;96715.16;;;13.18;91.62
36630;BME280;36256;42.154;23.002;2023-04-19T05:43:20;96711.09;;;13.34;94.37
36630;BME280;36256;42.154;23.002;2023-04-19T05:45:48;96709.13;;;13.40;92.14
36630;BME280;36256;42.154;23.002;2023-04-19T05:48:14;96713.56;;;13.61;91.07
36630;BME280;36256;42.154;23.002;2023-04-19T05:50:41;96711.09;;;13.83;89.07
36630;BME280;36256;42.154;23.002;2023-04-19T05:53:07;96711.44;;;14.26;86.21
36630;BME280;36256;42.154;23.002;2023-04-19T05:55:34;96710.50;;;14.69;84.55
36630;BME280;36256;42.154;23.002;2023-04-19T05:58:01;96703.56;;;15.41;79.64
36630;BME280;36256;42.154;23.002;2023-04-19T06:00:27;96698.22;;;16.17;75.88
36630;BME280;36256;42.154;23.002;2023-04-19T06:02:53;96696.50;;;16.84;69.88
36630;BME280;36256;42.154;23.002;2023-04-19T06:05:20;96688.78;;;16.90;68.73
36630;BME280;36256;42.154;23.002;2023-04-19T06:07:47;96686.72;;;16.85;68.51
36630;BME280;36256;42.154;23.002;2023-04-19T06:10:24;96680.84;;;17.21;65.95
36630;BME280;36256;42.154;23.002;2023-04-19T06:13:02;96685.31;;;17.83;64.15
36630;BME280;36256;42.154;23.002;2023-04-19T06:15:29;96680.09;;;18.04;62.17
36630;BME280;36256;42.154;23.002;2023-04-19T06:17:56;96679.34;;;18.09;60.67
36630;BME280;36256;42.154;23.002;2023-04-19T06:20:25;96669.97;;;18.36;60.68
36630;BME280;36256;42.154;23.002;2023-04-19T06:22:51;96675.75;;;17.92;61.13
36630;BME280;36256;42.154;23.002;2023-04-19T06:25:17;96674.19;;;17.36;62.22
36630;BME280;36256;42.154;23.002;2023-04-19T06:27:44;96681.78;;;16.74;64.75
36630;BME280;36256;42.154;23.002;2023-04-19T06:30:10;96675.19;;;16.40;67.60
36630;BME280;36256;42.154;23.002;2023-04-19T06:32:37;96685.25;;;15.99;68.46
36630;BME280;36256;42.154;23.002;2023-04-19T06:35:04;96697.41;;;15.74;71.07
36630;BME280;36256;42.154;23.002;2023-04-19T06:37:32;96699.47;;;15.73;70.66
36630;BME280;36256;42.154;23.002;2023-04-19T06:39:58;96700.69;;;15.67;71.97
36630;BME280;36256;42.154;23.002;2023-04-19T06:42:26;96694.56;;;15.68;71.88
36630;BME280;36256;42.154;23.002;2023-04-19T06:44:53;96697.78;;;15.56;72.44
36630;BME280;36256;42.154;23.002;2023-04-19T06:47:21;96710.34;;;15.49;73.29
36630;BME280;36256;42.154;23.002;2023-04-19T06:49:48;96700.56;;;15.50;71.99
36630;BME280;36256;42.154;23.002;2023-04-19T06:52:14;96705.84;;;16.05;70.83
36630;BME280;36256;42.154;23.002;2023-04-19T06:54:41;96704.41;;;16.21;70.63
36630;BME280;36256;42.154;23.002;2023-04-19T06:57:07;96699.59;;;16.32;70.79
36630;BME280;36256;42.154;23.002;2023-04-19T06:59:33;96690.97;;;16.58;67.79
36630;BME280;36256;42.154;23.002;2023-04-19T07:02:03;96689.47;;;16.63;65.86
36630;BME280;36256;42.154;23.002;2023-04-19T07:04:30;96688.75;;;16.79;65.79
36630;BME280;36256;42.154;23.002;2023-04-19T07:06:57;96681.31;;;16.92;64.28
36630;BME280;36256;42.154;23.002;2023-04-19T07:09:23;96681.63;;;17.05;64.19
36630;BME280;36256;42.154;23.002;2023-04-19T07:11:50;96676.22;;;17.07;63.95
36630;BME280;36256;42.154;23.002;2023-04-19T07:14:16;96675.91;;;16.94;64.75
36630;BME280;36256;42.154;23.002;2023-04-19T07:16:44;96689.91;;;17.31;65.92
36630;BME280;36256;42.154;23.002;2023-04-19T07:19:11;96672.94;;;17.53;64.20
36630;BME280;36256;42.154;23.002;2023-04-19T07:21:38;96686.88;;;17.62;62.98
36630;BME280;36256;42.154;23.002;2023-04-19T07:24:05;96674.75;;;17.51;62.29
36630;BME280;36256;42.154;23.002;2023-04-19T07:26:32;96678.09;;;17.55;61.91
36630;BME280;36256;42.154;23.002;2023-04-19T07:28:59;96675.00;;;17.69;62.05
36630;BME280;36256;42.154;23.002;2023-04-19T07:31:26;96678.09;;;17.71;61.70
36630;BME280;36256;42.154;23.002;2023-04-19T07:33:53;96682.16;;;18.20;61.57
36630;BME280;36256;42.154;23.002;2023-04-19T07:36:19;96680.66;;;17.80;60.20
36630;BME280;36256;42.154;23.002;2023-04-19T07:38:46;96675.50;;;17.90;60.55
36630;BME280;36256;42.154;23.002;2023-04-19T07:41:13;96675.19;;;18.21;59.93
36630;BME280;36256;42.154;23.002;2023-04-19T07:43:39;96673.59;;;18.31;59.02
36630;BME280;36256;42.154;23.002;2023-04-19T07:46:10;96677.78;;;18.14;60.42
36630;BME280;36256;42.154;23.002;2023-04-19T07:48:37;96672.38;;;18.90;59.68
36630;BME280;36256;42.154;23.002;2023-04-19T07:51:10;96661.09;;;18.67;58.40
36630;BME280;36256;42.154;23.002;2023-04-19T07:53:37;96673.41;;;18.87;57.00
36630;BME280;36256;42.154;23.002;2023-04-19T07:56:04;96674.63;;;18.97;58.84
36630;BME280;36256;42.154;23.002;2023-04-19T07:58:30;96663.47;;;19.10;57.84
36630;BME280;36256;42.154;23.002;2023-04-19T08:00:57;96675.25;;;19.25;59.12
36630;BME280;36256;42.154;23.002;2023-04-19T08:03:23;96652.88;;;19.45;54.62
36630;BME280;36256;42.154;23.002;2023-04-19T08:05:50;96650.06;;;19.05;55.64
36630;BME280;36256;42.154;23.002;2023-04-19T08:08:17;96660.59;;;19.10;55.24
36630;BME280;36256;42.154;23.002;2023-04-19T08:10:44;96657.91;;;18.88;55.88
36630;BME280;36256;42.154;23.002;2023-04-19T08:13:11;96649.13;;;18.86;55.78
36630;BME280;36256;42.154;23.002;2023-04-19T08:15:37;96648.91;;;18.78;54.18
36630;BME280;36256;42.154;23.002;2023-04-19T08:18:23;96644.19;;;18.29;56.00
36630;BME280;36256;42.154;23.002;2023-04-19T08:20:50;96647.25;;;18.47;56.76
36630;BME280;36256;42.154;23.002;2023-04-19T08:23:17;96639.09;;;18.73;56.04
36630;BME280;36256;42.154;23.002;2023-04-19T08:25:54;96650.41;;;18.85;58.56
36630;BME280;36256;42.154;23.002;2023-04-19T08:28:21;96656.25;;;19.09;55.00
36630;BME280;36256;42.154;23.002;2023-04-19T08:30:48;96630.94;;;19.00;53.07
36630;BME280;36256;42.154;23.002;2023-04-19T08:33:14;96637.00;;;19.26;54.97
36630;BME280;36256;42.154;23.002;2023-04-19T08:35:41;96624.00;;;18.95;52.15
36630;BME280;36256;42.154;23.002;2023-04-19T08:38:08;96617.34;;;18.87;51.79
36630;BME280;36256;42.154;23.002;2023-04-19T08:40:35;96625.69;;;19.15;53.09
36630;BME280;36256;42.154;23.002;2023-04-19T08:43:06;96612.88;;;19.38;49.72
36630;BME280;36256;42.154;23.002;2023-04-19T08:45:32;96592.53;;;19.82;52.17
36630;BME280;36256;42.154;23.002;2023-04-19T08:48:00;96595.66;;;20.08;47.68
36630;BME280;36256;42.154;23.002;2023-04-19T08:50:28;96580.63;;;20.32;48.20
36630;BME280;36256;42.154;23.002;2023-04-19T08:52:58;96564.38;;;20.27;45.23
36630;BME280;36256;42.154;23.002;2023-04-19T08:55:45;96569.28;;;20.26;46.17
36630;BME280;36256;42.154;23.002;2023-04-19T08:58:32;96574.53;;;20.22;51.40
36630;BME280;36256;42.154;23.002;2023-04-19T09:01:04;96577.94;;;20.40;48.49
36630;BME280;36256;42.154;23.002;2023-04-19T09:03:31;96560.16;;;20.09;46.55
36630;BME280;36256;42.154;23.002;2023-04-19T09:06:12;96562.66;;;19.70;46.77
36630;BME280;36256;42.154;23.002;2023-04-19T09:08:39;96551.63;;;19.61;46.35
36630;BME280;36256;42.154;23.002;2023-04-19T09:11:06;96553.03;;;19.49;45.64
36630;BME280;36256;42.154;23.002;2023-04-19T09:13:32;96558.56;;;19.66;48.16
36630;BME280;36256;42.154;23.002;2023-04-19T09:16:02;96557.47;;;19.44;47.00
36630;BME280;36256;42.154;23.002;2023-04-19T09:18:30;96553.03;;;19.14;46.14
36630;BME280;36256;42.154;23.002;2023-04-19T09:20:59;96544.09;;;18.99;47.44
36630;BME280;36256;42.154;23.002;2023-04-19T09:23:26;96547.75;;;19.29;45.96
36630;BME280;36256;42.154;23.002;2023-04-19T09:25:58;96555.72;;;19.36;48.22
36630;BME280;36256;42.154;23.002;2023-04-19T09:28:30;96572.63;;;19.23;49.44
36630;BME280;36256;42.154;23.002;2023-04-19T09:30:57;96585.34;;;18.75;50.66
36630;BME280;36256;42.154;23.002;2023-04-19T09:33:40;96595.84;;;18.40;51.69
36630;BME280;36256;42.154;23.002;2023-04-19T09:36:07;96601.94;;;18.03;52.49
36630;BME280;36256;42.154;23.002;2023-04-19T09:38:46;96612.81;;;17.66;54.32
36630;BME280;36256;42.154;23.002;2023-04-19T09:41:14;96625.47;;;17.32;57.47
36630;BME280;36256;42.154;23.002;2023-04-19T09:43:42;96642.13;;;16.85;60.37
36630;BME280;36256;42.154;23.002;2023-04-19T09:51:56;96677.38;;;16.20;70.84
36630;BME280;36256;42.154;23.002;2023-04-19T09:54:23;96688.94;;;16.11;73.93
36630;BME280;36256;42.154;23.002;2023-04-19T09:56:50;96685.03;;;16.03;72.27
36630;BME280;36256;42.154;23.002;2023-04-19T09:59:21;96689.59;;;15.95;71.17
36630;BME280;36256;42.154;23.002;2023-04-19T10:01:53;96681.59;;;15.93;70.43
36630;BME280;36256;42.154;23.002;2023-04-19T10:04:20;96683.72;;;15.98;72.12
36630;BME280;36256;42.154;23.002;2023-04-19T10:07:10;96697.16;;;15.72;77.16
36630;BME280;36256;42.154;23.002;2023-04-19T10:09:39;96703.41;;;15.82;84.54
36630;BME280;36256;42.154;23.002;2023-04-19T10:12:18;96679.28;;;15.92;79.02
36630;BME280;36256;42.154;23.002;2023-04-19T10:15:06;96665.47;;;16.05;83.22
36630;BME280;36256;42.154;23.002;2023-04-19T10:17:34;96663.47;;;16.11;86.21
36630;BME280;36256;42.154;23.002;2023-04-19T10:20:06;96661.97;;;16.21;84.20
36630;BME280;36256;42.154;23.002;2023-04-19T10:22:33;96650.16;;;16.28;83.44
36630;BME280;36256;42.154;23.002;2023-04-19T10:27:38;96647.34;;;16.28;85.57
36630;BME280;36256;42.154;23.002;2023-04-19T10:30:06;96641.94;;;16.35;84.28
36630;BME280;36256;42.154;23.002;2023-04-19T10:32:42;96638.16;;;16.49;80.48
36630;BME280;36256;42.154;23.002;2023-04-19T10:35:09;96629.19;;;16.62;79.63
36630;BME280;36256;42.154;23.002;2023-04-19T10:37:39;96622.03;;;16.72;79.89
36630;BME280;36256;42.154;23.002;2023-04-19T10:40:06;96619.75;;;16.98;79.39
36630;BME280;36256;42.154;23.002;2023-04-19T10:43:13;96603.03;;;17.34;79.19
36630;BME280;36256;42.154;23.002;2023-04-19T10:45:33;96609.72;;;17.75;79.42
36630;BME280;36256;42.154;23.002;2023-04-19T10:48:01;96593.91;;;18.07;74.70
36630;BME280;36256;42.154;23.002;2023-04-19T10:50:27;96604.59;;;18.42;69.90
36630;BME280;36256;42.154;23.002;2023-04-19T10:52:54;96605.13;;;18.46;62.03
36630;BME280;36256;42.154;23.002;2023-04-19T10:55:20;96609.38;;;18.06;63.56
36630;BME280;36256;42.154;23.002;2023-04-19T10:58:05;96600.72;;;17.60;62.81
36630;BME280;36256;42.154;23.002;2023-04-19T11:00:32;96596.84;;;17.07;60.60
36630;BME280;36256;42.154;23.002;2023-04-19T11:03:50;96595.28;;;16.95;61.09
36630;BME280;36256;42.154;23.002;2023-04-19T11:08:33;96594.31;;;16.28;60.32
36630;BME280;36256;42.154;23.002;2023-04-19T11:11:00;96597.31;;;16.08;61.47
36630;BME280;36256;42.154;23.002;2023-04-19T11:13:27;96597.97;;;15.87;62.35
36630;BME280;36256;42.154;23.002;2023-04-19T11:15:57;96607.25;;;15.87;63.69
36630;BME280;36256;42.154;23.002;2023-04-19T11:18:28;96611.59;;;15.88;63.16
36630;BME280;36256;42.154;23.002;2023-04-19T11:20:54;96608.31;;;15.95;62.22
36630;BME280;36256;42.154;23.002;2023-04-19T11:23:21;96620.94;;;16.00;69.40
36630;BME280;36256;42.154;23.002;2023-04-19T11:25:49;96624.72;;;15.86;71.27
36630;BME280;36256;42.154;23.002;2023-04-19T11:28:16;96632.16;;;15.83;70.11
36630;BME280;36256;42.154;23.002;2023-04-19T11:30:42;96630.41;;;15.91;69.99
36630;BME280;36256;42.154;23.002;2023-04-19T11:33:11;96633.53;;;15.99;68.85
36630;BME280;36256;42.154;23.002;2023-04-19T11:35:37;96632.00;;;15.98;70.61
36630;BME280;36256;42.154;23.002;2023-04-19T11:38:05;96633.81;;;16.01;70.44
36630;BME280;36256;42.154;23.002;2023-04-19T11:40:32;96630.75;;;16.10;68.89
36630;BME280;36256;42.154;23.002;2023-04-19T11:42:59;96640.81;;;16.11;71.13
36630;BME280;36256;42.154;23.002;2023-04-19T11:45:36;96642.84;;;16.05;70.86
36630;BME280;36256;42.154;23.002;2023-04-19T11:48:05;96640.81;;;16.11;74.11
36630;BME280;36256;42.154;23.002;2023-04-19T11:50:39;96638.72;;;16.06;74.15
36630;BME280;36256;42.154;23.002;2023-04-19T11:53:14;96651.53;;;15.96;76.66
36630;BME280;36256;42.154;23.002;2023-04-19T11:55:45;96652.59;;;16.04;77.58
36630;BME280;36256;42.154;23.002;2023-04-19T11:58:28;96656.47;;;16.01;77.93
36630;BME280;36256;42.154;23.002;2023-04-19T12:00:55;96649.53;;;16.07;76.09
36630;BME280;36256;42.154;23.002;2023-04-19T12:03:23;96652.66;;;16.15;78.70
36630;BME280;36256;42.154;23.002;2023-04-19T12:05:55;96651.22;;;16.36;80.57
36630;BME280;36256;42.154;23.002;2023-04-19T12:08:29;96654.97;;;16.64;75.53
36630;BME280;36256;42.154;23.002;2023-04-19T12:10:57;96648.81;;;16.71;73.52
36630;BME280;36256;42.154;23.002;2023-04-19T12:13:24;96639.00;;;16.61;68.23
36630;BME280;36256;42.154;23.002;2023-04-19T12:15:51;96646.84;;;16.35;68.28
36630;BME280;36256;42.154;23.002;2023-04-19T12:18:18;96648.00;;;16.12;70.24
36630;BME280;36256;42.154;23.002;2023-04-19T12:20:45;96649.50;;;16.02;70.52
36630;BME280;36256;42.154;23.002;2023-04-19T12:23:12;96641.59;;;16.11;67.88
36630;BME280;36256;42.154;23.002;2023-04-19T12:25:42;96640.81;;;16.11;67.09
36630;BME280;36256;42.154;23.002;2023-04-19T12:28:09;96631.53;;;16.05;66.14
36630;BME280;36256;42.154;23.002;2023-04-19T12:30:36;96628.16;;;16.01;64.32
36630;BME280;36256;42.154;23.002;2023-04-19T12:33:03;96616.09;;;16.06;66.29
36630;BME280;36256;42.154;23.002;2023-04-19T12:35:29;96634.09;;;16.03;71.41
36630;BME280;36256;42.154;23.002;2023-04-19T12:37:56;96630.94;;;15.90;73.65
36630;BME280;36256;42.154;23.002;2023-04-19T12:40:23;96647.63;;;15.88;79.55
36630;BME280;36256;42.154;23.002;2023-04-19T12:42:50;96645.25;;;15.81;82.77
36630;BME280;36256;42.154;23.002;2023-04-19T12:45:17;96630.06;;;15.78;82.65
36630;BME280;36256;42.154;23.002;2023-04-19T12:47:44;96633.66;;;15.73;83.45
36630;BME280;36256;42.154;23.002;2023-04-19T12:50:13;96632.78;;;15.61;87.98
36630;BME280;36256;42.154;23.002;2023-04-19T12:52:40;96624.13;;;15.70;86.51
36630;BME280;36256;42.154;23.002;2023-04-19T12:55:07;96617.25;;;15.83;86.96
36630;BME280;36256;42.154;23.002;2023-04-19T12:57:34;96617.66;;;16.07;86.96
36630;BME280;36256;42.154;23.002;2023-04-19T13:00:00;96607.44;;;16.26;82.16